• Join FlightAware (Why Join?)
  • Login
  • US Flag 
03:45AM EDT


 

Airport Tracker/Info


-or-


 

Live Flight TrackerFlight Track Log ✈ TYR690 ✈ 21-Aug-2014 ✈ UMMS / MSQ - LOWW / VIE

Flight Track Log - Related Links

Times and Time Zones

All times are in EDT time to prevent confusion due to time zone crossing. See the TYR690 flight status page for this flight to view local times or setup timezone preferences in your user account.

Time Position Orientation Groundspeed Altitude Reporting Facility
EDT Latitude Longitude Course Direction KTS MPH feet Rate Location/Type
10:08PM 53.6745 27.5149 236° Southwest  Level Estimated
10:09PM 53.6222 27.3868 235° Southwest  Level Estimated
10:10PM 53.5697 27.2590 235° Southwest  Level Estimated
10:11PM 53.5171 27.1315 235° Southwest  Level Estimated
10:12PM 53.4644 27.0043 235° Southwest  Level Estimated
10:13PM 53.4115 26.8774 235° Southwest  Level Estimated
10:14PM 53.3585 26.7508 235° Southwest  Level Estimated
10:15PM 53.3054 26.6246 235° Southwest  Level Estimated
10:16PM 53.2521 26.4986 235° Southwest  Level Estimated
10:17PM 53.1987 26.3730 235° Southwest  Level Estimated
10:18PM 53.1451 26.2477 235° Southwest  Level Estimated
10:19PM 53.0914 26.1227 234° Southwest  Level Estimated
10:20PM 53.0377 25.9980 234° Southwest  Level Estimated
10:21PM 52.9837 25.8737 234° Southwest  Level Estimated
10:22PM 52.9297 25.7496 234° Southwest  Level Estimated
10:23PM 52.8755 25.6259 234° Southwest  Level Estimated
10:24PM 52.8212 25.5024 234° Southwest  Level Estimated
10:25PM 52.7667 25.3793 234° Southwest  Level Estimated
10:26PM 52.7121 25.2565 234° Southwest  Level Estimated
10:27PM 52.6574 25.1339 234° Southwest  Level Estimated
10:28PM 52.6026 25.0117 234° Southwest  Level Estimated
10:29PM 52.5477 24.8898 233° Southwest  Level Estimated
10:30PM 52.4926 24.7682 233° Southwest  Level Estimated
10:31PM 52.4374 24.6469 233° Southwest  Level Estimated
10:32PM 52.3821 24.5259 233° Southwest  Level Estimated
10:33PM 52.3266 24.4052 233° Southwest  Level Estimated
10:34PM 52.2710 24.2848 233° Southwest  Level Estimated
10:35PM 52.2154 24.1647 233° Southwest  Level Estimated
10:36PM 52.1595 24.0450 233° Southwest  Level Estimated
10:37PM 52.1036 23.9255 233° Southwest  Level Estimated
10:38PM 52.0476 23.8063 233° Southwest  Level Estimated
10:39PM 51.9914 23.6874 233° Southwest  Level Estimated
10:40PM 51.9351 23.5688 232° Southwest  Level Estimated
10:41PM 51.8787 23.4505 232° Southwest  Level Estimated
10:42PM 51.8221 23.3326 232° Southwest  Level Estimated
10:43PM 51.7655 23.2148 232° Southwest  Level Estimated
10:44PM 51.7087 23.0975 232° Southwest  Level Estimated
10:45PM 51.6518 22.9803 232° Southwest  Level Estimated
10:46PM 51.5948 22.8635 232° Southwest  Level Estimated
10:47PM 51.5377 22.7470 232° Southwest  Level Estimated
10:48PM 51.4805 22.6308 232° Southwest  Level Estimated
10:49PM 51.4231 22.5148 232° Southwest  Level Estimated
10:50PM 51.3657 22.3992 232° Southwest  Level Estimated
10:51PM 51.3081 22.2838 231° Southwest  Level Estimated
10:52PM 51.2504 22.1688 231° Southwest  Level Estimated
10:53PM 51.1926 22.0540 231° Southwest  Level Estimated
10:54PM 51.1347 21.9395 231° Southwest  Level Estimated
10:55PM 51.0767 21.8253 231° Southwest  Level Estimated
10:56PM 51.0186 21.7114 231° Southwest  Level Estimated
10:57PM 50.9603 21.5978 231° Southwest  Level Estimated
10:58PM 50.9020 21.4844 231° Southwest  Level Estimated
10:59PM 50.8435 21.3713 231° Southwest  Level Estimated
11:00PM 50.7849 21.2586 231° Southwest  Level Estimated
11:01PM 50.7263 21.1461 231° Southwest  Level Estimated
11:02PM 50.6675 21.0339 230° Southwest  Level Estimated
11:03PM 50.6086 20.9219 230° Southwest  Level Estimated
11:04PM 50.5496 20.8103 230° Southwest  Level Estimated
11:05PM 50.4905 20.6989 230° Southwest  Level Estimated
11:06PM 50.4313 20.5878 230° Southwest  Level Estimated
11:07PM 50.3719 20.4770 230° Southwest  Level Estimated
11:08PM 50.3125 20.3664 230° Southwest  Level Estimated
11:09PM 50.2530 20.2562 230° Southwest  Level Estimated
11:10PM 50.1933 20.1462 230° Southwest  Level Estimated
11:11PM 50.1336 20.0365 230° Southwest  Level Estimated
11:12PM 50.0738 19.9270 230° Southwest  Level Estimated
11:13PM 50.0138 19.8179 230° Southwest  Level Estimated
11:14PM 49.9538 19.7090 229° Southwest  Level Estimated
11:15PM 49.8936 19.6004 229° Southwest  Level Estimated
11:16PM 49.8334 19.4920 229° Southwest  Level Estimated
11:17PM 49.7730 19.3839 229° Southwest  Level Estimated
11:18PM 49.7126 19.2761 229° Southwest  Level Estimated
11:19PM 49.6520 19.1686 229° Southwest  Level Estimated
11:20PM 49.5914 19.0613 229° Southwest  Level Estimated
11:21PM 49.5306 18.9543 229° Southwest  Level Estimated
11:22PM 49.4698 18.8475 229° Southwest  Level Estimated
11:23PM 49.4089 18.7411 229° Southwest  Level Estimated
11:24PM 49.3478 18.6348 229° Southwest  Level Estimated
11:25PM 49.2867 18.5289 229° Southwest  Level Estimated
11:26PM 49.2254 18.4232 228° Southwest  Level Estimated
11:27PM 49.1641 18.3178 228° Southwest  Level Estimated
11:28PM 49.1027 18.2126 228° Southwest  Level Estimated
11:29PM 49.0411 18.1077 228° Southwest  Level Estimated
11:30PM 48.9795 18.0030 228° Southwest  Level Estimated
11:31PM 48.9178 17.8986 228° Southwest  Level Estimated
11:32PM 48.8560 17.7945 228° Southwest  Level Estimated
11:33PM 48.7941 17.6906 228° Southwest  Level Estimated
11:34PM 48.7321 17.5870 228° Southwest  Level Estimated
11:35PM 48.6701 17.4837 228° Southwest  Level Estimated
11:36PM 48.6079 17.3806 228° Southwest  Level Estimated
11:37PM 48.5456 17.2777 228° Southwest  Level Estimated
11:38PM 48.4832 17.1751 228° Southwest  Level Estimated
11:39PM 48.4208 17.0728 227° Southwest  Level Estimated
11:40PM 48.3582 16.9706 227° Southwest  Level Estimated
11:41PM 48.2956 16.8688 227° Southwest  Level Estimated
11:42PM 48.2329 16.7672 227° Southwest  Level Estimated
11:43PM 48.1701 16.6659 227° Southwest  Level Estimated
11:44PM 48.1103 16.5697 227° Southwest  Level Estimated
11:45PM 48.1103 16.5697 North  Level Estimated
11:46PM 48.1103 16.5697 North  Level Estimated
11:47PM 48.1103 16.5697 North  Level Estimated
11:48PM 48.1103 16.5697 North  Level Estimated
11:49PM 48.1103 16.5697 North  Level Estimated
11:50PM 48.1103 16.5697 North  Level Estimated
11:51PM 48.1103 16.5697 North  Level Estimated
11:52PM 48.1103 16.5697 North  Level Estimated
11:53PM 48.1103 16.5697 North  Level Estimated